• Join FlightAware (Why Join?)
  • Login
  • US Flag 
01:40PM EST


 

Airport Tracker/Info


-or-


 

Live Flight TrackerFlight Track Log ✈ UAL773 ✈ 27-Oct-2013 ✈ KEWR - CYEG

Flight Track Log - Related Links

Times and Time Zones

All times are in EDT time to prevent confusion due to time zone crossing. See the UAL773 flight status page for this flight to view local times or setup timezone preferences in your user account.

Time Position Orientation Groundspeed Altitude Reporting Facility
EDT Latitude Longitude Course Direction KTS MPH feet Rate Location/Type
08:24PM 40.6333 -74.1833 250° West 188 216 1,700  Level New York TRACON
08:29PM 41.0199 -74.7069 250° West  Level Estimated
08:29PM 40.8020 -74.6490 250° West 100 115 14,500  Level FlightAware
08:30PM 40.8050 -74.6630 286° West 100 115 14,500  Level FlightAware
08:30PM 40.8090 -74.6800 287° West 100 115 14,500 723 Level FlightAware
08:31PM 40.8510 -74.8620 287° West 334 384 15,500 1,846 Climbing FlightAware
08:32PM 40.8710 -75.0060 280° West 340 391 18,100 2,133 Climbing FlightAware
08:33PM 40.8640 -75.0520 259° West 354 407 18,700 1,920 Climbing FlightAware
08:34PM 40.8450 -75.1700 258° West 360 414 20,500 1,835 Climbing FlightAware
08:34PM 40.8350 -75.2330 258° West 362 417 21,300 585 Climbing FlightAware
08:35PM 40.8180 -75.3280 257° West 362 417 21,300  Level FlightAware
08:35PM 40.8110 -75.3720 258° West 362 417 21,300  Level FlightAware
08:36PM 40.7990 -75.4380 257° West 362 417 21,300 2,494 Level FlightAware
08:37PM 40.7720 -75.6130 259° West 362 417 25,000 2,755 Climbing FlightAware
08:38PM 40.7560 -75.7100 258° West 396 456 25,800 1,020 Climbing FlightAware
08:39PM 40.7320 -75.8550 258° West 409 471 26,700 988 Climbing FlightAware
08:39PM 40.7200 -75.9280 258° West 413 475 27,200 867 Climbing FlightAware
08:40PM 40.6960 -76.0690 257° West 418 481 28,000 1,148 Climbing FlightAware
08:41PM 40.6740 -76.2170 259° West 420 483 29,400 1,320 Climbing FlightAware
08:42PM 40.6800 -76.3280 274° West 404 465 30,200 1,371 Climbing FlightAware
08:43PM 40.7000 -76.4660 281° West 402 463 31,800 1,473 Climbing FlightAware
08:44PM 40.7180 -76.5840 281° West 388 447 32,900 840 Climbing FlightAware
08:44PM 40.7340 -76.6920 281° West 397 457 33,200 660 Climbing FlightAware
08:45PM 40.7530 -76.8240 281° West 393 452 34,000 429 Climbing FlightAware
08:46PM 40.7710 -76.9480 281° West 393 452 34,000  Level FlightAware
08:47PM 40.7850 -77.0420 281° West 393 452 34,000  Level FlightAware
08:47PM 40.7920 -77.0900 281° West 393 452 34,000  Level FlightAware
08:48PM 40.8160 -77.2630 280° West 393 452 34,000  Level FlightAware
08:49PM 40.8320 -77.3780 280° West 393 452 34,000  Level FlightAware
08:50PM 40.8470 -77.4880 280° West 393 452 34,000  Level FlightAware
08:51PM 40.8580 -77.5620 281° West 393 452 34,000  Level FlightAware
08:51PM 40.8720 -77.6580 281° West 393 452 34,000  Level FlightAware
08:52PM 40.8860 -77.7510 281° West 393 452 34,000  Level FlightAware
08:53PM 40.9000 -77.8510 281° West 393 452 34,000  Level FlightAware
08:54PM 40.9150 -77.9470 282° West 393 452 34,000  Level FlightAware
08:55PM 40.9290 -78.0460 281° West 393 452 34,000  Level FlightAware
08:56PM 40.9470 -78.1680 281° West 393 452 34,000  Level FlightAware
08:57PM 40.9650 -78.2890 281° West 393 452 34,000  Level FlightAware
08:58PM 40.9820 -78.4090 281° West 393 452 34,000  Level FlightAware
08:58PM 40.9930 -78.4820 281° West 393 452 34,000  Level FlightAware
08:59PM 41.0110 -78.6020 281° West 393 452 34,000  Level FlightAware
09:00PM 41.0210 -78.6750 280° West 393 452 34,000  Level FlightAware
09:01PM 41.0544 -79.1553 280° West 397 457 34,000  Level Cleveland Center
09:02PM 41.0711 -79.3008 279° West 400 460 34,000  Level Cleveland Center
09:03PM 41.0869 -79.4456 278° West 401 461 34,000  Level Cleveland Center
09:04PM 41.1028 -79.5908 278° West 401 461 34,000  Level Cleveland Center
09:05PM 41.1178 -79.7331 278° West 395 455 34,000  Level Cleveland Center
09:06PM 41.1353 -79.8764 279° West 396 456 34,000  Level Cleveland Center
09:07PM 41.1511 -80.0203 278° West 396 456 34,000  Level Cleveland Center
09:08PM 41.1683 -80.1961 277° West 401 461 34,000  Level Cleveland Center
09:09PM 41.1836 -80.3472 278° West 396 456 34,000  Level Cleveland Center
09:11PM 41.2003 -80.4933 279° West 396 456 34,000  Level Cleveland Center
09:12PM 41.2144 -80.6397 277° West 397 457 34,000  Level Cleveland Center
09:13PM 41.2294 -80.7858 278° West 397 457 34,000  Level Cleveland Center
09:14PM 41.2433 -80.9331 277° West 399 459 34,000  Level Cleveland Center
09:15PM 41.2572 -81.0800 277° West 398 458 34,000  Level Cleveland Center
09:16PM 41.2717 -81.2275 277° West 399 459 34,000  Level Cleveland Center
09:17PM 41.2858 -81.3742 277° West 398 458 34,000  Level Cleveland Center
09:18PM 41.3000 -81.5267 277° West 398 458 34,000  Level Cleveland Center
09:19PM 41.3144 -81.6719 278° West 398 458 34,000  Level Cleveland Center
09:20PM 41.3261 -81.8175 276° West 398 458 34,000  Level Cleveland Center
09:21PM 41.3394 -81.9636 277° West 398 458 34,000  Level Cleveland Center
09:22PM 41.3553 -82.1250 277° West 403 464 34,000  Level Cleveland Center
09:23PM 41.3917 -82.2664 289° West 399 459 34,000  Level Cleveland Center
09:24PM 41.4361 -82.4058 293° West 405 466 34,000  Level Cleveland Center
09:25PM 41.4803 -82.5433 293° West 401 461 34,000  Level Cleveland Center
09:26PM 41.5314 -82.7028 293° West 400 460 34,000  Level Cleveland Center
09:27PM 41.5744 -82.8411 293° West 399 459 34,000  Level Cleveland Center
09:28PM 41.6175 -82.9781 293° West 398 458 34,000  Level Cleveland Center
09:29PM 41.6586 -83.1114 292° West 396 456 34,000  Level Cleveland Center
09:30PM 41.7006 -83.2492 292° West 398 458 34,000  Level Cleveland Center
09:31PM 41.7436 -83.3869 293° West 400 460 34,000  Level Cleveland Center
09:32PM 41.7856 -83.5242 292° West 397 457 34,000  Level Cleveland Center
09:33PM 41.8272 -83.6619 292° West 398 458 34,000  Level Cleveland Center
09:34PM 41.8703 -83.7986 293° West 396 456 34,000  Level Cleveland Center
09:35PM 41.9119 -83.9378 292° West 400 460 34,000  Level Cleveland Center
09:36PM 41.9536 -84.0767 292° West 400 460 34,000  Level Cleveland Center
09:37PM 42.0031 -84.2433 292° West 400 460 34,000  Level Cleveland Center
09:38PM 42.0422 -84.3669 293° West 401 461 34,000  Level Cleveland Center
09:39PM 42.0750 -84.4836 291° West 400 460 34,000  Level Chicago Center
09:44PM 42.2720 -85.1590 291° West 100 115 34,000  Level FlightAware
09:45PM 42.2790 -85.1840 291° West 100 115 34,000  Level FlightAware
09:46PM 42.2850 -85.2020 294° West 100 115 34,000  Level FlightAware
09:47PM 42.2940 -85.2320 292° West 100 115 34,000  Level FlightAware
09:48PM 42.3030 -85.2620 292° West 100 115 34,000  Level FlightAware
09:48PM 42.3100 -85.2850 292° West 100 115 34,000  Level FlightAware
09:49PM 42.3170 -85.3090 292° West 100 115 34,000  Level FlightAware
09:50PM 42.3240 -85.3330 292° West 100 115 34,000  Level FlightAware
09:53PM 42.6340 -86.4430 291° West 389 448 34,000  Level FlightAware
09:54PM 42.6740 -86.5930 290° West 393 452 34,000  Level FlightAware
09:55PM 42.7080 -86.7230 290° West 393 452 34,000  Level FlightAware
09:56PM 42.7430 -86.8520 290° West 398 458 34,000  Level FlightAware
09:57PM 42.7660 -86.9380 290° West 394 453 34,000  Level FlightAware
09:58PM 42.8010 -87.0670 290° West 389 448 34,000  Level FlightAware
09:58PM 42.8200 -87.1420 289° West 396 456 34,000  Level FlightAware
09:59PM 42.8350 -87.1960 291° West 389 448 34,000  Level FlightAware
10:00PM 42.8800 -87.3660 290° West 385 443 34,000 240 Level FlightAware
10:00PM 42.8960 -87.4250 290° West 385 443 34,400 1,200 Climbing FlightAware
10:01PM 42.9140 -87.4970 289° West 380 437 35,200 1,129 Climbing FlightAware
10:02PM 42.9450 -87.6140 290° West 365 420 36,000 505 Climbing FlightAware
10:03PM 42.9710 -87.7130 290° West 376 433 36,000  Level FlightAware
10:03PM 42.9960 -87.8110 289° West 377 434 36,000  Level FlightAware
10:04PM 43.0260 -87.9290 289° West 383 441 36,000  Level FlightAware
10:05PM 43.0570 -88.0490 290° West 376 433 36,000  Level FlightAware
10:06PM 43.0880 -88.1720 289° West 378 435 36,000  Level FlightAware
10:07PM 43.1200 -88.2860 291° West 377 434 36,000  Level FlightAware
10:08PM 43.1680 -88.4050 299° West 388 447 36,000  Level FlightAware
10:09PM 43.2130 -88.5120 300° West 383 441 36,000  Level FlightAware
10:09PM 43.2190 -88.5190 320° Northwest 383 441 36,000  Level FlightAware
10:09PM 43.2580 -88.6080 301° West 405 466 36,000  Level FlightAware
10:10PM 43.2790 -88.6570 300° West 390 449 36,000  Level FlightAware
10:11PM 43.3300 -88.7800 300° West 361 415 36,000  Level FlightAware
10:12PM 43.3710 -88.8770 300° West 361 415 36,000  Level FlightAware
10:13PM 43.4050 -88.9600 299° West 361 415 36,000  Level FlightAware
10:13PM 43.4400 -89.0430 300° West 361 415 36,000  Level FlightAware
10:14PM 43.4740 -89.1240 300° West 361 415 36,000  Level FlightAware
10:15PM 43.5000 -89.1850 300° West 361 415 36,000  Level FlightAware
10:15PM 43.5170 -89.2260 300° West 361 415 36,000  Level FlightAware
10:16PM 43.5590 -89.3270 300° West 361 415 36,000  Level FlightAware
10:17PM 43.5930 -89.4090 300° West 361 415 36,000  Level FlightAware
10:18PM 43.6280 -89.4900 301° West 361 415 36,000  Level FlightAware
10:19PM 43.6700 -89.5920 300° West 361 415 36,000  Level FlightAware
10:20PM 43.7130 -89.6940 300° West 361 415 36,000  Level FlightAware
10:20PM 43.8631 -90.0533 300° West 382 440 36,000  Level Minneapolis Center
10:21PM 43.9164 -90.1833 300° West 386 444 36,000  Level Minneapolis Center
10:23PM 43.9694 -90.3103 300° West 383 441 36,000  Level Minneapolis Center
10:24PM 44.0214 -90.4397 299° West 386 444 36,000  Level Minneapolis Center
10:25PM 44.0764 -90.5772 299° West 385 443 36,000  Level Minneapolis Center
10:26PM 44.1283 -90.7050 300° West 384 442 36,000  Level Minneapolis Center
10:27PM 44.1797 -90.8342 299° West 387 445 36,000  Level Minneapolis Center
10:28PM 44.2311 -90.9633 299° West 386 444 36,000  Level Minneapolis Center
10:29PM 44.2828 -91.0933 299° West 387 445 36,000  Level Minneapolis Center
10:30PM 44.3381 -91.2347 299° West 388 447 36,000  Level Minneapolis Center
10:31PM 44.3892 -91.3669 298° West 387 445 36,000  Level Minneapolis Center
10:32PM 44.4514 -91.5253 299° West 389 448 36,000  Level Minneapolis Center
10:33PM 44.5031 -91.6575 299° West 388 447 36,000  Level Minneapolis Center
10:34PM 44.5514 -91.7892 297° West 384 442 36,000  Level Minneapolis Center
10:35PM 44.6033 -91.9219 299° West 387 445 36,000  Level Minneapolis Center
10:36PM 44.6569 -92.0556 299° West 391 450 36,000  Level Minneapolis Center
10:37PM 44.7069 -92.1903 298° West 391 450 36,000  Level Minneapolis Center
10:38PM 44.7569 -92.3242 298° West 389 448 36,000  Level Minneapolis Center
10:39PM 44.8086 -92.4578 299° West 390 449 36,000  Level Minneapolis Center
10:40PM 44.8586 -92.5931 298° West 391 450 36,000  Level Minneapolis Center
10:41PM 44.9181 -92.7531 298° West 388 447 36,000  Level Minneapolis Center
10:42PM 44.9689 -92.8864 298° West 390 449 36,000  Level Minneapolis Center
10:43PM 45.0183 -93.0219 297° West 392 451 36,000  Level Minneapolis Center
10:44PM 45.0678 -93.1581 297° West 394 453 36,000  Level Minneapolis Center
10:45PM 45.1175 -93.2944 297° West 394 453 36,000  Level Minneapolis Center
10:46PM 45.1717 -93.4278 300° West 394 453 36,000  Level Minneapolis Center
10:47PM 45.2356 -93.5558 305° West 398 458 36,000  Level Minneapolis Center
10:48PM 45.2981 -93.6833 305° West 398 458 36,000  Level Minneapolis Center
10:49PM 45.3719 -93.8389 304° West 397 457 36,000  Level Minneapolis Center
10:50PM 45.4350 -93.9678 305° West 398 458 36,000  Level Minneapolis Center
10:51PM 45.4967 -94.0969 304° West 396 456 36,000  Level Minneapolis Center
10:52PM 45.5597 -94.2272 305° West 398 458 36,000  Level Minneapolis Center
10:53PM 45.6208 -94.3586 304° West 399 459 36,000  Level Minneapolis Center
10:54PM 45.6839 -94.4892 305° West 400 460 36,000  Level Minneapolis Center
10:55PM 45.7456 -94.6225 304° West 402 463 36,000  Level Minneapolis Center
10:56PM 45.8075 -94.7544 304° West 402 463 36,000  Level Minneapolis Center
10:57PM 45.8692 -94.8872 304° West 401 461 36,000  Level Minneapolis Center
10:58PM 45.9306 -95.0186 304° West 400 460 36,000  Level Minneapolis Center
10:59PM 45.9956 -95.1597 304° West 402 463 36,000  Level Minneapolis Center
11:00PM 46.0567 -95.2928 304° West 401 461 36,000  Level Minneapolis Center
11:01PM 46.1303 -95.4531 304° West 401 461 36,000  Level Minneapolis Center
11:02PM 46.1906 -95.5869 303° West 401 461 36,000  Level Minneapolis Center
11:03PM 46.2514 -95.7211 303° West 401 461 36,000  Level Minneapolis Center
11:04PM 46.3142 -95.8603 303° West 409 471 36,000  Level Minneapolis Center
11:05PM 46.3758 -95.9969 303° West 407 468 36,000  Level Minneapolis Center
11:06PM 46.4367 -96.1328 303° West 403 464 36,000  Level Minneapolis Center
11:07PM 46.4972 -96.2700 303° West 404 465 36,000 -49 Level Minneapolis Center
11:08PM 46.5578 -96.4064 303° West 402 463 35,900  Descending Minneapolis Center
11:09PM 46.6178 -96.5444 302° West 404 465 36,000 49 Climbing Minneapolis Center
11:10PM 46.6775 -96.6822 302° West 404 465 36,000  Level Minneapolis Center
11:11PM 46.7386 -96.8206 303° West 406 467 36,000  Level Minneapolis Center
11:12PM 46.8072 -96.9514 307° West 407 468 36,000  Level Minneapolis Center
11:13PM 46.8794 -97.0781 310° West 407 468 36,000  Level Minneapolis Center
11:14PM 46.9647 -97.2314 309° West 404 465 36,000 -49 Level Minneapolis Center
11:16PM 47.0347 -97.3597 309° West 404 465 35,900 -49 Descending Minneapolis Center
11:17PM 47.1078 -97.4875 310° West 410 472 35,900 49 Level Minneapolis Center
11:18PM 47.1783 -97.6167 309° West 407 468 36,000 49 Climbing Minneapolis Center
11:19PM 47.2489 -97.7461 309° West 406 467 36,000 -49 Level Minneapolis Center
11:20PM 47.3194 -97.8756 309° West 403 464 35,900 -49 Descending Minneapolis Center
11:21PM 47.3906 -98.0072 309° West 403 464 35,900 49 Level Minneapolis Center
11:22PM 47.4611 -98.1389 308° West 404 465 36,000 49 Climbing Minneapolis Center
11:23PM 47.5319 -98.2700 309° West 404 465 36,000 -49 Level Minneapolis Center
11:24PM 47.6017 -98.4011 308° West 404 465 35,900  Descending Minneapolis Center
11:25PM 47.6708 -98.5328 308° West 404 465 36,000  Climbing Minneapolis Center
11:26PM 47.7406 -98.6642 308° West 405 466 35,900  Descending Minneapolis Center
11:27PM 47.8092 -98.7964 308° West 405 466 36,000 49 Climbing Minneapolis Center
11:28PM 47.8775 -98.9272 308° West 403 464 36,000 -49 Level Minneapolis Center
11:29PM 47.9461 -99.0586 308° West 401 461 35,900 -49 Descending Minneapolis Center
11:30PM 48.0144 -99.1878 308° West 399 459 35,900  Level Minneapolis Center
11:31PM 48.0806 -99.3194 307° West 398 458 35,900 49 Level Minneapolis Center
11:32PM 48.1622 -99.4781 308° West 400 460 36,000 50 Climbing Minneapolis Center
11:33PM 48.2281 -99.6117 307° West 400 460 36,000  Level Minneapolis Center
11:34PM 48.2928 -99.7439 306° West 398 458 36,000 -49 Level Minneapolis Center
11:35PM 48.3586 -99.8744 307° West 395 455 35,900 -49 Descending Minneapolis Center
11:36PM 48.4253 -100.0036 308° West 393 452 35,900  Level Minneapolis Center
11:37PM 48.4903 -100.1342 307° West 391 450 35,900  Level Minneapolis Center
11:38PM 48.5550 -100.2661 307° West 393 452 35,900 49 Level Minneapolis Center
11:39PM 48.6211 -100.3992 307° West 395 455 36,000 50 Climbing Minneapolis Center
11:40PM 48.6867 -100.5319 307° West 397 457 36,000  Level Minneapolis Center
11:41PM 48.7536 -100.6669 307° West 399 459 36,000  Level Minneapolis Center
11:42PM 48.8194 -100.8025 306° West 401 461 36,000  Level Minneapolis Center
11:43PM 48.8500 -100.9000 295° West 400 460 36,000  Level Winnipeg Center
11:44PM 48.9167 -101.0667 301° West 400 460 36,000  Level Winnipeg Center
11:45PM 48.9833 -101.2000 307° West 400 460 36,000  Level Winnipeg Center
11:46PM 49.0500 -101.3000 316° Northwest 400 460 36,000  Level Winnipeg Center
11:47PM 49.1167 -101.4667 301° West 400 460 36,000  Level Winnipeg Center
11:48PM 49.1833 -101.6000 307° West 390 449 36,000  Level Winnipeg Center
11:49PM 49.2500 -101.7333 307° West 390 449 36,000  Level Winnipeg Center
11:50PM 49.3000 -101.8667 300° West 400 460 36,000  Level Winnipeg Center
11:51PM 49.3667 -102.0000 308° West 400 460 36,000  Level Winnipeg Center
11:52PM 49.4500 -102.1333 314° West 400 460 36,000  Level Winnipeg Center
11:53PM 49.5000 -102.2667 300° West 400 460 36,000  Level Winnipeg Center
11:54PM 49.5667 -102.4333 302° West 400 460 36,000  Level Winnipeg Center
11:55PM 49.6167 -102.5667 300° West 400 460 36,000  Level Winnipeg Center
11:56PM 49.7000 -102.7167 311° West 400 460 36,000  Level Winnipeg Center
11:57PM 49.7667 -102.8500 308° West 390 449 36,000  Level Winnipeg Center
11:58PM 49.8167 -102.9833 300° West 400 460 36,000  Level Winnipeg Center
11:59PM 49.8833 -103.1167 308° West 390 449 36,000  Level Winnipeg Center
12:00AM 49.9333 -103.2667 297° West 390 449 36,000  Level Winnipeg Center
12:01AM 50.0000 -103.4333 302° West 390 449 36,000  Level Winnipeg Center
12:02AM 50.0500 -103.5667 300° West 390 449 36,000  Level Winnipeg Center
12:03AM 50.1000 -103.7000 300° West 390 449 36,000  Level Winnipeg Center
12:04AM 50.1667 -103.8333 308° West 390 449 36,000  Level Winnipeg Center
12:05AM 50.2167 -103.9833 298° West 390 449 36,000  Level Winnipeg Center
12:06AM 50.2667 -104.1500 295° West 390 449 36,000  Level Winnipeg Center
12:07AM 50.3333 -104.2833 308° West 390 449 36,000  Level Winnipeg Center
12:08AM 50.3833 -104.4333 298° West 390 449 36,000  Level Winnipeg Center
12:09AM 50.4500 -104.5667 308° West 390 449 36,000  Level Winnipeg Center
12:10AM 50.4833 -104.7333 288° West 380 437 36,000  Level Winnipeg Center
12:11AM 50.5500 -104.8833 305° West 390 449 36,000  Level Winnipeg Center
12:12AM 50.6000 -105.0167 301° West 390 449 36,000  Level Winnipeg Center
12:13AM 50.6667 -105.1667 305° West 390 449 36,000  Level Winnipeg Center
12:14AM 50.7167 -105.3333 295° West 390 449 36,000  Level Winnipeg Center
12:15AM 50.7667 -105.4667 301° West 390 449 36,000  Level Winnipeg Center
12:16AM 50.8333 -105.6167 305° West 390 449 36,000  Level Winnipeg Center
12:17AM 50.8833 -105.7833 295° West 400 460 36,000  Level Winnipeg Center
12:18AM 50.9333 -105.9333 298° West 400 460 36,000  Level Winnipeg Center
12:19AM 51.0000 -106.0833 305° West 400 460 36,000  Level Winnipeg Center
12:20AM 51.0500 -106.2500 296° West 400 460 36,000  Level Winnipeg Center
12:21AM 51.1000 -106.4000 298° West 400 460 36,000  Level Winnipeg Center
12:22AM 51.1667 -106.5333 309° West 410 472 36,000  Level Winnipeg Center
12:23AM 51.2167 -106.7167 294° West 410 472 36,000  Level Winnipeg Center
12:24AM 51.2667 -106.8500 301° West 410 472 36,000  Level Winnipeg Center
12:25AM 51.3167 -107.0333 294° West 410 472 36,000  Level Winnipeg Center
12:26AM 51.3667 -107.1833 298° West 410 472 36,000  Level Winnipeg Center
12:27AM 51.4333 -107.3500 303° West 410 472 36,000  Level Winnipeg Center
12:28AM 51.4833 -107.5000 298° West 410 472 36,000  Level Winnipeg Center
12:29AM 51.5333 -107.6667 296° West 410 472 36,000  Level Winnipeg Center
12:30AM 51.6000 -107.8500 300° West 410 472 36,000  Level Winnipeg Center
12:31AM 51.6333 -107.9500 298° West 410 472 36,000  Level Edmonton Center
12:32AM 51.6833 -108.1167 296° West 410 472 36,000  Level Edmonton Center
12:33AM 51.7500 -108.3000 300° West 410 472 36,000  Level Edmonton Center
12:34AM 51.7833 -108.4667 288° West 410 472 36,000  Level Edmonton Center
12:35AM 51.8500 -108.6333 303° West 420 483 36,000  Level Edmonton Center
12:36AM 51.9000 -108.8000 296° West 420 483 36,000  Level Edmonton Center
12:37AM 51.9667 -108.9667 303° West 420 483 36,000  Level Edmonton Center
12:38AM 52.0000 -109.1333 288° West 420 483 36,000  Level Edmonton Center
12:39AM 52.0667 -109.3000 303° West 420 483 36,000  Level Edmonton Center
12:40AM 52.1333 -109.4833 301° West 420 483 36,000  Level Edmonton Center
12:41AM 52.1667 -109.6500 288° West 410 472 36,000  Level Edmonton Center
12:42AM 52.2333 -109.8167 303° West 400 460 36,000  Level Edmonton Center
12:43AM 52.2667 -110.0000 287° West 420 483 36,000  Level Edmonton Center
12:44AM 52.3333 -110.1667 303° West 420 483 36,000  Level Edmonton Center
12:45AM 52.3833 -110.3333 296° West 420 483 36,000  Level Edmonton Center
12:46AM 52.4167 -110.5167 287° West 420 483 36,000 -150 Level Edmonton Center
12:47AM 52.4667 -110.6833 296° West 410 472 35,700 -1,350 Descending Edmonton Center
12:48AM 52.5167 -110.8500 296° West 420 483 33,300 -2,250 Descending Edmonton Center
12:49AM 52.5667 -111.0333 294° West 410 472 31,200 -2,050 Descending Edmonton Center
12:50AM 52.6000 -111.2000 288° West 380 437 29,200 -2,150 Descending Edmonton Center
12:51AM 52.6333 -111.3500 290° West 350 403 26,900 -2,150 Descending Edmonton Center
12:52AM 52.6667 -111.5000 290° West 340 391 24,900 -1,900 Descending Edmonton Center
12:53AM 52.7167 -111.6333 302° West 330 380 23,100 -1,700 Descending Edmonton Center
12:54AM 52.7333 -111.7833 280° West 330 380 21,500 -1,650 Descending Edmonton Center
12:55AM 52.7833 -111.9333 299° West 330 380 19,800 -1,650 Descending Edmonton Center
12:56AM 52.8000 -112.0500 283° West 320 368 18,200 -1,400 Descending Edmonton Center
12:57AM 52.8500 -112.2000 299° West 310 357 17,000 -1,350 Descending Edmonton Center
12:58AM 52.8833 -112.3167 295° West 310 357 15,500 -1,550 Descending Edmonton Center
12:59AM 52.9167 -112.4667 290° West 310 357 13,900 -1,650 Descending Edmonton Center
01:00AM 52.9500 -112.5833 295° West 310 357 12,200 -1,600 Descending Edmonton Center
01:01AM 52.9667 -112.7167 282° West 300 345 10,700 -1,400 Descending Edmonton Center
01:02AM 53.0167 -112.8500 302° West 280 322 9,400 -1,300 Descending Edmonton Center
01:03AM 53.0333 -112.9667 283° West 270 311 8,100 -1,300 Descending Edmonton Center
01:04AM 53.0667 -113.0833 295° West 260 299 6,800 -1,250 Descending Edmonton Center
01:05AM 53.0833 -113.2000 283° West 260 299 5,600 -900 Descending Edmonton Center
01:06AM 53.1167 -113.2833 304° West 240 276 5,000 -300 Descending Edmonton Center
01:07AM 53.1500 -113.3833 299° West 190 219 5,000  Level Edmonton Center
01:08AM 53.1667 -113.4500 293° West 180 207 5,000 -500 Level Edmonton Center
01:09AM 53.2000 -113.5000 318° Northwest 180 207 4,000 -900 Descending Edmonton Center
01:10AM 53.2333 -113.5333 329° Northwest 130 150 3,200 -750 Descending Edmonton Center
01:11AM 53.2667 -113.5833 318° Northwest 120 138 2,500 -450 Descending Edmonton Center
01:12AM 53.2833 -113.6333 299° West 130 150 2,300 -200 Descending Edmonton Center